createdAt,value
2022-09-22T00:01:19.772Z,1.48
2022-09-22T00:03:50.202Z,1.38
2022-09-22T00:06:29.692Z,1.35
2022-09-22T00:09:00.612Z,1.60
2022-09-22T00:11:36.086Z,1.25
2022-09-22T00:14:06.006Z,1.60
2022-09-22T00:16:47.733Z,1.48
2022-09-22T00:19:26.521Z,1.77
2022-09-22T00:21:53.956Z,1.40
2022-09-22T00:24:22.776Z,1.13
2022-09-22T00:26:51.097Z,1.40
2022-09-22T00:29:18.116Z,1.30
2022-09-22T00:31:45.645Z,1.45
2022-09-22T00:34:21.317Z,1.20
2022-09-22T00:36:48.865Z,1.38
2022-09-22T00:39:17.477Z,1.48
2022-09-22T00:41:47.489Z,1.65
2022-09-22T00:44:26.628Z,1.30
2022-09-22T00:46:55.648Z,1.35
2022-09-22T00:49:55.778Z,1.77
2022-09-22T00:52:27.347Z,1.65
2022-09-22T00:54:58.724Z,1.42
2022-09-22T00:57:31.319Z,1.27
2022-09-22T00:59:59.937Z,1.25
2022-09-22T01:02:26.905Z,1.10
2022-09-22T01:04:53.816Z,1.08
2022-09-22T01:07:24.261Z,1.52
2022-09-22T01:09:52.267Z,1.73
2022-09-22T01:12:19.853Z,1.27
2022-09-22T01:14:55.685Z,1.38
2022-09-22T01:17:38.345Z,1.17
2022-09-22T01:20:26.879Z,1.48
2022-09-22T01:23:18.936Z,1.23
2022-09-22T01:25:54.589Z,1.27
2022-09-22T01:28:39.931Z,1.05
2022-09-22T01:31:32.926Z,1.10
2022-09-22T01:34:15.286Z,1.02
2022-09-22T01:36:55.427Z,1.48
2022-09-22T01:39:34.513Z,1.27
2022-09-22T01:42:05.971Z,1.00
2022-09-22T01:44:38.416Z,1.30
2022-09-22T01:47:13.343Z,1.38
2022-09-22T01:49:46.746Z,1.20
2022-09-22T01:52:18.524Z,1.30
2022-09-22T01:54:54.917Z,1.40
2022-09-22T01:57:55.726Z,1.65
2022-09-22T02:00:26.504Z,1.58
2022-09-22T02:03:02.314Z,1.33
2022-09-22T02:05:34.526Z,1.20
2022-09-22T02:08:09.980Z,1.42
2022-09-22T02:10:41.595Z,1.10
2022-09-22T02:13:08.708Z,1.15
2022-09-22T02:15:54.502Z,1.45
2022-09-22T02:18:30.469Z,1.50
2022-09-22T02:20:57.872Z,1.60
2022-09-22T02:23:24.918Z,1.95
2022-09-22T02:25:53.466Z,1.27
2022-09-22T02:28:22.191Z,1.55
2022-09-22T02:31:17.650Z,1.83
2022-09-22T02:33:39.999Z,2.05
2022-09-22T02:36:18.879Z,1.88
2022-09-22T02:39:07.287Z,2.00
2022-09-22T02:42:06.061Z,1.98
2022-09-22T02:45:14.848Z,2.47
2022-09-22T02:47:50.701Z,1.95
2022-09-22T02:50:22.062Z,2.80
2022-09-22T02:52:52.729Z,2.80
2022-09-22T02:55:20.008Z,2.10
2022-09-22T02:57:46.918Z,2.42
2022-09-22T03:00:14.324Z,2.80
2022-09-22T03:02:41.211Z,2.88
2022-09-22T03:05:08.306Z,2.90
2022-09-22T03:07:35.144Z,2.67
2022-09-22T03:10:01.959Z,3.08
2022-09-22T03:12:28.925Z,3.88
2022-09-22T03:14:55.992Z,4.63
2022-09-22T03:17:22.862Z,3.75
2022-09-22T03:19:49.750Z,3.90
2022-09-22T03:22:16.682Z,3.95
2022-09-22T03:24:43.500Z,4.38
2022-09-22T03:27:10.348Z,3.85
2022-09-22T03:29:37.209Z,3.90
2022-09-22T03:32:04.073Z,4.55
2022-09-22T03:34:31.033Z,3.30
2022-09-22T03:36:57.992Z,3.50
2022-09-22T03:39:24.922Z,3.75
2022-09-22T03:41:51.704Z,3.20
2022-09-22T03:44:18.524Z,2.92
2022-09-22T03:46:45.302Z,3.08
2022-09-22T03:49:12.184Z,3.50
2022-09-22T03:51:39.131Z,3.50
2022-09-22T03:54:06.675Z,3.30
2022-09-22T03:56:33.625Z,3.67
2022-09-22T03:59:00.573Z,3.53
2022-09-22T04:01:27.442Z,3.75
2022-09-22T04:03:54.273Z,4.18
2022-09-22T04:06:21.708Z,3.92
2022-09-22T04:08:48.770Z,4.57
2022-09-22T04:11:15.608Z,4.97
2022-09-22T04:13:46.228Z,4.32
2022-09-22T04:16:13.741Z,4.47
2022-09-22T04:18:40.675Z,5.05
2022-09-22T04:21:08.331Z,4.22
2022-09-22T04:23:35.348Z,4.72
2022-09-22T04:26:02.301Z,5.03
2022-09-22T04:28:29.793Z,5.60
2022-09-22T04:30:57.545Z,4.47
2022-09-22T04:33:25.092Z,4.53
2022-09-22T04:35:52.534Z,4.25
2022-09-22T04:38:19.965Z,4.10
2022-09-22T04:40:46.831Z,4.57
2022-09-22T04:43:13.809Z,4.53
2022-09-22T04:45:42.926Z,4.30
2022-09-22T04:48:09.841Z,4.40
2022-09-22T04:50:36.770Z,5.45
2022-09-22T04:53:06.783Z,5.45
2022-09-22T04:55:36.040Z,5.63
2022-09-22T04:58:02.929Z,5.15
2022-09-22T05:00:30.935Z,5.18
2022-09-22T05:02:58.073Z,5.93
2022-09-22T05:05:24.944Z,5.75
2022-09-22T05:07:54.922Z,5.28
2022-09-22T05:10:25.392Z,6.72
2022-09-22T05:12:58.934Z,5.78
2022-09-22T05:15:26.809Z,5.93
2022-09-22T05:17:55.313Z,6.38
2022-09-22T05:20:22.322Z,6.70
2022-09-22T05:22:49.698Z,5.38
2022-09-22T05:25:19.116Z,6.68
2022-09-22T05:27:55.581Z,6.80
2022-09-22T05:30:26.072Z,6.72
2022-09-22T05:32:56.515Z,5.22
2022-09-22T05:35:36.979Z,6.32
2022-09-22T05:38:04.529Z,5.68
2022-09-22T05:40:51.687Z,6.00
2022-09-22T05:46:29.738Z,6.10
2022-09-22T05:48:56.626Z,6.97
2022-09-22T05:51:25.508Z,6.30
2022-09-22T05:53:53.046Z,7.07
2022-09-22T05:56:39.313Z,6.97
2022-09-22T05:59:41.587Z,7.07
2022-09-22T06:02:55.107Z,6.28
2022-09-22T06:05:47.364Z,7.07
2022-09-22T06:11:34.098Z,7.35
2022-09-22T06:14:13.031Z,7.43
2022-09-22T06:16:40.169Z,6.88
2022-09-22T06:19:07.165Z,6.13
2022-09-22T06:21:35.044Z,6.78
2022-09-22T06:24:02.257Z,7.00
2022-09-22T06:26:29.177Z,6.85
2022-09-22T06:28:56.908Z,6.75
2022-09-22T06:31:24.367Z,7.63
2022-09-22T06:33:51.342Z,7.07
2022-09-22T06:36:23.204Z,8.15
2022-09-22T06:38:50.800Z,7.23
2022-09-22T06:41:17.746Z,7.70
2022-09-22T06:43:44.626Z,8.60
2022-09-22T06:46:12.093Z,7.00
2022-09-22T06:48:39.191Z,7.68
2022-09-22T06:51:06.044Z,7.50
2022-09-22T06:53:32.854Z,9.02
2022-09-22T06:56:05.986Z,8.27
2022-09-22T06:58:46.986Z,8.73
2022-09-22T07:01:20.092Z,8.43
2022-09-22T07:03:47.331Z,7.38
2022-09-22T07:06:20.572Z,8.35
2022-09-22T07:08:48.869Z,10.35
2022-09-22T07:11:17.907Z,8.35
2022-09-22T07:13:45.677Z,8.25
2022-09-22T07:16:17.688Z,7.88
2022-09-22T07:18:48.085Z,6.85
2022-09-22T07:21:26.355Z,8.32
2022-09-22T07:23:57.622Z,6.45
2022-09-22T07:26:34.019Z,5.55
2022-09-22T07:29:03.521Z,6.13
2022-09-22T07:31:32.135Z,5.15
2022-09-22T07:34:00.304Z,4.90
2022-09-22T07:36:30.820Z,4.85
2022-09-22T07:39:03.344Z,4.57
2022-09-22T07:41:31.930Z,4.93
2022-09-22T07:44:23.428Z,4.47
2022-09-22T07:46:50.352Z,4.63
2022-09-22T07:49:22.118Z,3.90
2022-09-22T07:51:49.679Z,3.08
2022-09-22T07:54:16.837Z,3.33
2022-09-22T07:56:45.076Z,2.90
2022-09-22T07:59:15.702Z,3.42
2022-09-22T08:01:47.545Z,2.90
2022-09-22T08:04:16.847Z,2.60
2022-09-22T08:06:45.110Z,2.45
2022-09-22T08:09:13.019Z,2.85
2022-09-22T08:11:40.595Z,2.60
2022-09-22T08:14:11.304Z,2.67
2022-09-22T08:16:39.975Z,2.17
2022-09-22T08:19:12.676Z,2.33
2022-09-22T08:21:48.903Z,2.00
2022-09-22T08:24:22.281Z,2.55
2022-09-22T08:26:52.160Z,2.28
2022-09-22T08:29:19.009Z,1.90
2022-09-22T08:31:47.505Z,2.38
2022-09-22T08:34:17.708Z,2.42
2022-09-22T08:36:46.247Z,2.08
2022-09-22T08:39:13.485Z,2.08
2022-09-22T08:41:43.399Z,2.05
2022-09-22T08:44:16.382Z,1.85
2022-09-22T08:46:47.618Z,2.03
2022-09-22T08:49:48.939Z,2.05
2022-09-22T08:52:43.860Z,1.83
2022-09-22T08:55:30.657Z,1.90
2022-09-22T08:58:27.999Z,2.08
2022-09-22T09:01:20.305Z,1.70
2022-09-22T09:03:57.780Z,2.00
2022-09-22T09:06:39.783Z,2.05
2022-09-22T09:09:47.925Z,1.80
2022-09-22T09:13:08.693Z,1.80
2022-09-22T09:15:38.078Z,1.50
2022-09-22T09:18:16.630Z,1.60
2022-09-22T09:20:46.429Z,1.65
2022-09-22T09:26:32.665Z,2.00
2022-09-22T09:29:04.274Z,1.45
2022-09-22T09:31:42.426Z,1.77
2022-09-22T09:34:14.689Z,1.33
2022-09-22T09:36:44.033Z,1.77
2022-09-22T09:39:29.213Z,1.70
2022-09-22T09:41:57.793Z,1.30
2022-09-22T09:44:38.986Z,2.03
2022-09-22T09:47:43.132Z,1.55
2022-09-22T09:50:11.384Z,1.40
2022-09-22T09:52:38.981Z,1.58
2022-09-22T09:55:33.488Z,1.58
2022-09-22T09:58:03.333Z,1.50
2022-09-22T10:00:32.998Z,1.30
2022-09-22T10:03:02.853Z,1.30
2022-09-22T10:05:32.443Z,1.42
2022-09-22T10:08:24.477Z,1.13
2022-09-22T10:10:58.226Z,1.48
2022-09-22T10:13:33.120Z,1.60
2022-09-22T10:16:06.666Z,1.50
2022-09-22T10:18:41.797Z,1.27
2022-09-22T10:21:24.746Z,1.23
2022-09-22T10:24:03.016Z,1.45
2022-09-22T10:26:33.736Z,1.33
2022-09-22T10:29:12.810Z,1.65
2022-09-22T10:31:41.780Z,1.30
2022-09-22T10:34:38.493Z,1.30
2022-09-22T10:37:12.805Z,1.20
2022-09-22T10:40:00.532Z,1.30
2022-09-22T10:42:41.355Z,1.30
2022-09-22T10:45:16.415Z,1.60
2022-09-22T10:47:56.172Z,1.50
2022-09-22T10:51:09.201Z,1.30
2022-09-22T10:53:55.047Z,1.35
2022-09-22T10:56:41.778Z,1.70
2022-09-22T10:59:36.365Z,1.60
2022-09-22T11:02:30.460Z,1.73
2022-09-22T11:05:45.363Z,1.40
2022-09-22T11:08:34.428Z,1.50
2022-09-22T11:11:35.907Z,1.35
2022-09-22T11:14:13.036Z,1.30
2022-09-22T11:17:25.424Z,1.60
2022-09-22T11:20:34.181Z,1.27
2022-09-22T11:23:29.203Z,1.30
2022-09-22T11:26:10.968Z,1.40
2022-09-22T11:29:14.002Z,0.90
2022-09-22T11:31:59.918Z,0.98
2022-09-22T11:34:42.980Z,1.35
2022-09-22T11:37:26.782Z,1.00
2022-09-22T11:40:17.187Z,1.52
2022-09-22T11:42:59.426Z,1.02
2022-09-22T11:45:50.982Z,1.35
2022-09-22T11:48:17.851Z,1.33
2022-09-22T11:51:00.114Z,1.05
2022-09-22T11:53:47.057Z,1.00
2022-09-22T11:56:49.975Z,1.10
2022-09-22T11:59:57.372Z,1.35
2022-09-22T12:02:41.187Z,1.10
2022-09-22T12:05:26.977Z,1.10
2022-09-22T12:08:02.452Z,0.80
2022-09-22T12:10:39.835Z,1.00
2022-09-22T12:13:33.600Z,1.13
2022-09-22T12:16:23.076Z,1.30
2022-09-22T12:19:20.615Z,1.10
2022-09-22T12:22:11.790Z,0.88
2022-09-22T12:24:39.913Z,0.90
2022-09-22T12:27:12.957Z,1.17
2022-09-22T12:29:41.638Z,0.90
2022-09-22T12:32:30.891Z,0.90
2022-09-22T12:35:07.471Z,0.80
2022-09-22T12:37:39.543Z,0.80
2022-09-22T12:40:41.434Z,0.70
2022-09-22T12:43:16.144Z,1.17
2022-09-22T12:45:43.674Z,0.70
2022-09-22T12:48:17.922Z,1.00
2022-09-22T12:50:45.989Z,0.88
2022-09-22T12:53:22.139Z,0.98
2022-09-22T12:55:50.136Z,0.93
2022-09-22T12:58:24.106Z,1.33
2022-09-22T13:00:56.320Z,1.27
2022-09-22T13:03:28.566Z,1.10
2022-09-22T13:06:15.203Z,1.05
2022-09-22T13:08:45.015Z,1.02
2022-09-22T13:11:12.320Z,0.90
2022-09-22T13:13:50.565Z,0.93
2022-09-22T13:16:17.942Z,0.88
2022-09-22T13:18:54.616Z,1.00
2022-09-22T13:21:32.473Z,0.93
2022-09-22T13:24:02.422Z,1.23
2022-09-22T13:26:29.244Z,1.38
2022-09-22T13:29:19.863Z,1.08
2022-09-22T13:31:48.449Z,0.82
2022-09-22T13:34:31.061Z,0.85
2022-09-22T13:37:07.926Z,1.15
2022-09-22T13:39:47.818Z,1.00
2022-09-22T13:42:22.278Z,1.13
2022-09-22T13:44:58.974Z,0.90
2022-09-22T13:47:28.145Z,1.33
2022-09-22T13:49:58.093Z,1.02
2022-09-22T13:52:31.300Z,0.77
2022-09-22T13:55:03.173Z,1.02
2022-09-22T13:57:37.626Z,1.10
2022-09-22T14:00:08.355Z,1.05
2022-09-22T14:02:36.621Z,1.00
2022-09-22T14:05:07.967Z,1.00
2022-09-22T14:07:49.591Z,1.20
2022-09-22T14:10:27.705Z,1.27
2022-09-22T14:12:55.437Z,0.90
2022-09-22T14:15:37.831Z,1.13
2022-09-22T14:18:19.225Z,1.10
2022-09-22T14:20:47.274Z,1.08
2022-09-22T14:23:32.031Z,0.90
2022-09-22T14:26:01.874Z,1.08
2022-09-22T14:28:32.999Z,0.77
2022-09-22T14:30:59.923Z,0.82
2022-09-22T14:33:33.464Z,0.65
2022-09-22T14:36:05.965Z,0.90
2022-09-22T14:38:44.398Z,0.95
2022-09-22T14:41:26.906Z,0.80
2022-09-22T14:43:55.093Z,0.88
2022-09-22T14:46:41.606Z,1.00
2022-09-22T14:49:39.463Z,1.00
2022-09-22T14:52:18.402Z,0.80
2022-09-22T14:54:45.377Z,1.02
2022-09-22T14:57:16.659Z,0.70
2022-09-22T15:00:07.533Z,1.00
2022-09-22T15:02:41.399Z,0.90
2022-09-22T15:05:11.253Z,0.90
2022-09-22T15:07:46.369Z,1.08
2022-09-22T15:10:32.676Z,0.82
2022-09-22T15:13:26.727Z,0.98
2022-09-22T15:15:53.747Z,0.82
2022-09-22T15:18:20.681Z,1.10
2022-09-22T15:20:55.798Z,1.17
2022-09-22T15:23:40.969Z,0.73
2022-09-22T15:26:21.686Z,1.05
2022-09-22T15:28:53.654Z,1.00
2022-09-22T15:31:26.878Z,0.90
2022-09-22T15:34:06.385Z,1.02
2022-09-22T15:36:44.125Z,1.05
2022-09-22T15:39:22.307Z,0.93
2022-09-22T15:41:50.488Z,1.00
2022-09-22T15:44:17.765Z,1.17
2022-09-22T15:46:48.807Z,1.17
2022-09-22T15:49:21.032Z,1.00
2022-09-22T15:51:51.177Z,1.20
2022-09-22T15:54:23.493Z,0.90
2022-09-22T15:56:52.584Z,1.00
2022-09-22T15:59:26.755Z,0.80
2022-09-22T16:01:57.232Z,0.90
2022-09-22T16:04:24.719Z,0.70
2022-09-22T16:06:55.627Z,0.70
2022-09-22T16:09:23.535Z,0.98
2022-09-22T16:11:50.551Z,1.15
2022-09-22T16:14:18.189Z,0.77
2022-09-22T16:16:46.181Z,1.15
2022-09-22T16:19:14.111Z,0.82
2022-09-22T16:21:49.249Z,1.30
2022-09-22T16:24:16.642Z,1.20
2022-09-22T16:26:48.839Z,0.98
2022-09-22T16:29:17.627Z,1.00
2022-09-22T16:31:44.578Z,1.67
2022-09-22T16:34:11.868Z,1.05
2022-09-22T16:36:41.088Z,1.30
2022-09-22T16:39:07.949Z,1.23
2022-09-22T16:41:36.031Z,1.27
2022-09-22T16:44:04.536Z,1.10
2022-09-22T16:46:33.741Z,1.30
2022-09-22T16:49:05.814Z,1.40
2022-09-22T16:51:37.017Z,1.30
2022-09-22T16:54:13.775Z,1.35
2022-09-22T16:56:43.364Z,1.40
2022-09-22T16:59:10.675Z,1.20
2022-09-22T17:01:38.395Z,1.90
2022-09-22T17:04:07.583Z,1.40
2022-09-22T17:06:36.126Z,1.35
2022-09-22T17:09:04.252Z,1.40
2022-09-22T17:11:34.583Z,1.30
2022-09-22T17:14:12.236Z,1.25
2022-09-22T17:16:45.259Z,1.23
2022-09-22T17:19:18.479Z,1.60
2022-09-22T17:21:53.243Z,1.58
2022-09-22T17:24:20.239Z,1.42
2022-09-22T17:26:49.308Z,1.50
2022-09-22T17:29:18.461Z,2.00
2022-09-22T17:31:49.072Z,1.83
2022-09-22T17:34:16.221Z,2.00
2022-09-22T17:36:43.509Z,2.35
2022-09-22T17:39:10.782Z,1.83
2022-09-22T17:41:45.459Z,2.15
2022-09-22T17:44:13.823Z,2.30
2022-09-22T17:47:00.723Z,1.98
2022-09-22T17:49:45.996Z,1.80
2022-09-22T17:52:33.510Z,1.60
2022-09-22T17:55:09.670Z,1.73
2022-09-22T17:57:41.854Z,1.75
2022-09-22T18:00:21.212Z,2.10
2022-09-22T18:02:50.378Z,3.50
2022-09-22T18:05:20.294Z,3.65
2022-09-22T18:07:50.529Z,2.50
2022-09-22T18:12:46.890Z,3.42
2022-09-22T18:15:13.937Z,3.63
2022-09-22T18:17:42.430Z,3.22
2022-09-22T18:20:14.838Z,3.33
2022-09-22T18:22:47.492Z,3.10
2022-09-22T18:25:15.564Z,2.38
2022-09-22T18:27:42.449Z,2.20
2022-09-22T18:30:15.334Z,2.28
2022-09-22T18:32:42.914Z,2.00
2022-09-22T18:35:12.766Z,2.20
2022-09-22T18:37:39.971Z,2.50
2022-09-22T18:40:07.892Z,2.97
2022-09-22T18:42:37.886Z,5.38
2022-09-22T18:45:05.114Z,7.50
2022-09-22T18:47:32.192Z,10.90
2022-09-22T18:49:59.204Z,9.55
2022-09-22T18:52:26.087Z,8.23
2022-09-22T18:54:54.226Z,6.38
2022-09-22T18:57:25.607Z,5.25
2022-09-22T18:59:53.981Z,4.85
2022-09-22T19:02:22.557Z,4.32
2022-09-22T19:04:51.208Z,3.22
2022-09-22T19:07:41.082Z,2.85
2022-09-22T19:10:11.995Z,2.33
2022-09-22T19:12:42.834Z,1.88
2022-09-22T19:15:16.371Z,1.80
2022-09-22T19:17:44.585Z,2.55
2022-09-22T19:20:17.368Z,1.88
2022-09-22T19:25:14.929Z,1.98
2022-09-22T19:27:41.987Z,1.30
2022-09-22T19:30:10.546Z,1.63
2022-09-22T19:32:38.366Z,1.38
2022-09-22T19:35:09.519Z,1.80
2022-09-22T19:37:41.270Z,1.85
2022-09-22T19:40:09.679Z,1.83
2022-09-22T19:42:39.979Z,1.95
2022-09-22T19:45:09.316Z,5.30
2022-09-22T19:47:37.100Z,6.03
2022-09-22T19:50:05.233Z,6.78
2022-09-22T19:52:32.333Z,3.22
2022-09-22T19:54:59.492Z,3.28
2022-09-22T19:57:26.694Z,1.90
2022-09-22T19:59:56.957Z,1.55
2022-09-22T20:02:24.063Z,1.73
2022-09-22T20:04:53.689Z,1.48
2022-09-22T20:10:03.155Z,1.77
2022-09-22T20:12:31.815Z,1.15
2022-09-22T20:14:58.863Z,1.42
2022-09-22T20:17:26.057Z,1.50
2022-09-22T20:19:53.054Z,1.20
2022-09-22T20:22:20.232Z,1.15
2022-09-22T20:24:54.742Z,1.50
2022-09-22T20:27:32.818Z,1.25
2022-09-22T20:30:00.778Z,1.38
2022-09-22T20:32:31.481Z,1.20
2022-09-22T20:34:58.977Z,1.45
2022-09-22T20:37:26.230Z,1.30
2022-09-22T20:39:53.482Z,1.42
2022-09-22T20:42:20.598Z,1.85
2022-09-22T20:44:49.081Z,1.40
2022-09-22T20:47:18.688Z,1.60
2022-09-22T20:49:51.274Z,1.60
2022-09-22T20:54:48.459Z,1.30
2022-09-22T20:57:16.170Z,1.48
2022-09-22T20:59:45.673Z,1.65
2022-09-22T21:02:14.556Z,1.30
2022-09-22T21:04:42.214Z,1.30
2022-09-22T21:07:10.164Z,1.05
2022-09-22T21:09:55.926Z,1.60
2022-09-22T21:12:28.605Z,1.10
2022-09-22T21:14:58.632Z,1.05
2022-09-22T21:17:27.872Z,1.17
2022-09-22T21:19:57.782Z,1.17
2022-09-22T21:22:27.997Z,1.20
2022-09-22T21:24:55.340Z,1.30
2022-09-22T21:27:22.341Z,1.20
2022-09-22T21:29:49.328Z,1.20
2022-09-22T21:32:16.548Z,1.50
2022-09-22T21:34:43.991Z,1.10
2022-09-22T21:37:10.994Z,1.00
2022-09-22T21:39:38.085Z,1.20
2022-09-22T21:42:05.214Z,1.10
2022-09-22T21:44:32.556Z,1.30
2022-09-22T21:47:00.636Z,1.02
2022-09-22T21:49:28.298Z,1.50
2022-09-22T21:51:55.221Z,0.98
2022-09-22T21:54:23.098Z,1.20
2022-09-22T21:56:50.739Z,1.05
2022-09-22T21:59:18.043Z,1.17
2022-09-22T22:01:45.387Z,1.25
2022-09-22T22:04:15.134Z,1.30
2022-09-22T22:07:25.903Z,1.15
2022-09-22T22:10:02.923Z,1.05
2022-09-22T22:12:40.138Z,1.20
2022-09-22T22:15:10.690Z,1.00
2022-09-22T22:17:37.542Z,1.15
2022-09-22T22:20:05.263Z,1.00
2022-09-22T22:22:32.248Z,0.95
2022-09-22T22:24:59.125Z,1.08
2022-09-22T22:27:26.262Z,1.00
2022-09-22T22:29:54.153Z,1.08
2022-09-22T22:32:21.782Z,1.15
2022-09-22T22:34:48.764Z,0.98
2022-09-22T22:37:17.426Z,1.00
2022-09-22T22:39:54.841Z,0.93
2022-09-22T22:42:21.867Z,0.90
2022-09-22T22:44:49.393Z,0.95
2022-09-22T22:47:17.147Z,1.20
2022-09-22T22:49:44.322Z,1.10
2022-09-22T22:52:11.426Z,1.38
2022-09-22T22:54:38.414Z,0.95
2022-09-22T22:57:05.315Z,1.08
2022-09-22T22:59:32.319Z,1.00
2022-09-22T23:01:59.336Z,1.00
2022-09-22T23:04:26.274Z,0.80
2022-09-22T23:06:53.240Z,1.00
2022-09-22T23:09:20.140Z,0.95
2022-09-22T23:11:47.589Z,1.02
2022-09-22T23:14:16.368Z,0.93
2022-09-22T23:16:46.019Z,1.00
2022-09-22T23:19:17.994Z,0.90
2022-09-22T23:21:45.327Z,1.10
2022-09-22T23:24:18.795Z,0.93
2022-09-22T23:26:46.176Z,0.90
2022-09-22T23:29:13.450Z,1.02
2022-09-22T23:31:40.344Z,1.00
2022-09-22T23:34:07.214Z,1.25
2022-09-22T23:36:34.428Z,1.35
2022-09-22T23:39:04.649Z,1.10
2022-09-22T23:41:34.380Z,1.17
2022-09-22T23:44:02.976Z,1.30
2022-09-22T23:46:30.097Z,0.95
2022-09-22T23:48:57.891Z,0.90
2022-09-22T23:51:24.757Z,1.23
2022-09-22T23:53:51.854Z,1.33
2022-09-22T23:56:19.599Z,1.10
2022-09-22T23:58:46.799Z,1.08
